sensor_id;sensor_type;location;lat;lon;timestamp;pressure;altitude;pressure_sealevel;temperature;humidity
78843;BME280;70542;53.774;-0.352;2023-07-24T00:04:31;100500;;;15;57
78843;BME280;70542;53.774;-0.352;2023-07-24T00:10:10;100500;;;15;58
78843;BME280;70542;53.774;-0.352;2023-07-24T00:15:48;100510;;;14;59
78843;BME280;70542;53.774;-0.352;2023-07-24T00:21:27;100520;;;14;57
78843;BME280;70542;53.774;-0.352;2023-07-24T00:27:05;100520;;;15;55
78843;BME280;70542;53.774;-0.352;2023-07-24T00:32:48;100520;;;14;58
78843;BME280;70542;53.774;-0.352;2023-07-24T00:38:26;100530;;;14;57
78843;BME280;70542;53.774;-0.352;2023-07-24T00:44:05;100530;;;14;56
78843;BME280;70542;53.774;-0.352;2023-07-24T00:49:44;100530;;;15;55
78843;BME280;70542;53.774;-0.352;2023-07-24T00:55:23;100520;;;16;53
78843;BME280;70542;53.774;-0.352;2023-07-24T01:01:02;100520;;;15;52
78843;BME280;70542;53.774;-0.352;2023-07-24T01:06:41;100510;;;15;53
78843;BME280;70542;53.774;-0.352;2023-07-24T01:12:38;100510;;;17;49
78843;BME280;70542;53.774;-0.352;2023-07-24T01:18:19;100510;;;16;53
78843;BME280;70542;53.774;-0.352;2023-07-24T01:24:09;100510;;;17;49
78843;BME280;70542;53.774;-0.352;2023-07-24T01:29:53;100520;;;15;52
78843;BME280;70542;53.774;-0.352;2023-07-24T01:35:32;100510;;;17;49
78843;BME280;70542;53.774;-0.352;2023-07-24T01:41:11;100510;;;17;47
78843;BME280;70542;53.774;-0.352;2023-07-24T01:46:49;100510;;;16;54
78843;BME280;70542;53.774;-0.352;2023-07-24T01:52:28;100510;;;17;48
78843;BME280;70542;53.774;-0.352;2023-07-24T01:58:07;100520;;;15;56
78843;BME280;70542;53.774;-0.352;2023-07-24T02:06:40;100520;;;14;57
78843;BME280;70542;53.774;-0.352;2023-07-24T02:12:18;100500;;;16;51
78843;BME280;70542;53.774;-0.352;2023-07-24T02:17:57;100500;;;15;56
78843;BME280;70542;53.774;-0.352;2023-07-24T02:23:36;100500;;;16;52
78843;BME280;70542;53.774;-0.352;2023-07-24T02:29:14;100500;;;15;55
78843;BME280;70542;53.774;-0.352;2023-07-24T02:34:53;100500;;;16;51
78843;BME280;70542;53.774;-0.352;2023-07-24T02:40:32;100500;;;16;52
78843;BME280;70542;53.774;-0.352;2023-07-24T02:46:11;100490;;;16;53
78843;BME280;70542;53.774;-0.352;2023-07-24T02:51:50;100490;;;15;54
78843;BME280;70542;53.774;-0.352;2023-07-24T02:57:28;100500;;;13;60
78843;BME280;70542;53.774;-0.352;2023-07-24T03:03:07;100490;;;14;59
78843;BME280;70542;53.774;-0.352;2023-07-24T03:08:46;100490;;;15;55
78843;BME280;70542;53.774;-0.352;2023-07-24T03:14:24;100490;;;13;62
78843;BME280;70542;53.774;-0.352;2023-07-24T03:20:09;100490;;;15;53
78843;BME280;70542;53.774;-0.352;2023-07-24T03:25:48;100490;;;16;52
78843;BME280;70542;53.774;-0.352;2023-07-24T03:31:26;100490;;;16;54
78843;BME280;70542;53.774;-0.352;2023-07-24T03:37:05;100490;;;16;53
78843;BME280;70542;53.774;-0.352;2023-07-24T03:42:43;100500;;;15;57
78843;BME280;70542;53.774;-0.352;2023-07-24T03:48:22;100510;;;13;60
78843;BME280;70542;53.774;-0.352;2023-07-24T03:54:00;100510;;;15;55
78843;BME280;70542;53.774;-0.352;2023-07-24T03:59:39;100510;;;15;57
78843;BME280;70542;53.774;-0.352;2023-07-24T04:05:18;100510;;;18;48
78843;BME280;70542;53.774;-0.352;2023-07-24T04:10:56;100520;;;16;53
78843;BME280;70542;53.774;-0.352;2023-07-24T04:16:35;100520;;;15;55
78843;BME280;70542;53.774;-0.352;2023-07-24T04:22:13;100520;;;13;60
78843;BME280;70542;53.774;-0.352;2023-07-24T04:27:52;100520;;;14;59
78843;BME280;70542;53.774;-0.352;2023-07-24T04:33:30;100520;;;16;54
78843;BME280;70542;53.774;-0.352;2023-07-24T04:39:09;100530;;;16;55
78843;BME280;70542;53.774;-0.352;2023-07-24T04:44:47;100530;;;15;55
78843;BME280;70542;53.774;-0.352;2023-07-24T04:50:26;100530;;;14;57
78843;BME280;70542;53.774;-0.352;2023-07-24T04:56:05;100540;;;15;55
78843;BME280;70542;53.774;-0.352;2023-07-24T05:01:43;100540;;;15;55
78843;BME280;70542;53.774;-0.352;2023-07-24T05:07:22;100550;;;15;55
78843;BME280;70542;53.774;-0.352;2023-07-24T05:13:00;100550;;;16;53
78843;BME280;70542;53.774;-0.352;2023-07-24T05:18:39;100560;;;16;52
78843;BME280;70542;53.774;-0.352;2023-07-24T05:24:18;100560;;;15;53
78843;BME280;70542;53.774;-0.352;2023-07-24T05:29:56;100560;;;15;54
78843;BME280;70542;53.774;-0.352;2023-07-24T05:35:35;100560;;;16;51
78843;BME280;70542;53.774;-0.352;2023-07-24T05:41:13;100560;;;17;50
78843;BME280;70542;53.774;-0.352;2023-07-24T05:46:52;100560;;;17;50
78843;BME280;70542;53.774;-0.352;2023-07-24T05:52:30;100580;;;14;54
78843;BME280;70542;53.774;-0.352;2023-07-24T05:58:09;100580;;;16;50
78843;BME280;70542;53.774;-0.352;2023-07-24T06:03:48;100580;;;17;51
78843;BME280;70542;53.774;-0.352;2023-07-24T06:09:26;100590;;;14;57
78843;BME280;70542;53.774;-0.352;2023-07-24T06:15:06;100590;;;16;53
78843;BME280;70542;53.774;-0.352;2023-07-24T06:20:45;100590;;;16;52
78843;BME280;70542;53.774;-0.352;2023-07-24T06:26:24;100590;;;17;50
78843;BME280;70542;53.774;-0.352;2023-07-24T06:32:02;100610;;;15;55
78843;BME280;70542;53.774;-0.352;2023-07-24T06:37:41;100610;;;15;55
78843;BME280;70542;53.774;-0.352;2023-07-24T06:43:20;100600;;;13;58
78843;BME280;70542;53.774;-0.352;2023-07-24T06:48:58;100600;;;14;56
78843;BME280;70542;53.774;-0.352;2023-07-24T06:54:37;100600;;;14;57
78843;BME280;70542;53.774;-0.352;2023-07-24T07:00:16;100610;;;14;55
78843;BME280;70542;53.774;-0.352;2023-07-24T07:05:58;100610;;;16;53
78843;BME280;70542;53.774;-0.352;2023-07-24T07:11:37;100620;;;15;52
78843;BME280;70542;53.774;-0.352;2023-07-24T07:17:16;100620;;;15;53
78843;BME280;70542;53.774;-0.352;2023-07-24T07:22:54;100630;;;14;57
78843;BME280;70542;53.774;-0.352;2023-07-24T07:28:33;100630;;;13;60
78843;BME280;70542;53.774;-0.352;2023-07-24T07:34:11;100630;;;15;56
78843;BME280;70542;53.774;-0.352;2023-07-24T07:39:50;100640;;;15;58
78843;BME280;70542;53.774;-0.352;2023-07-24T07:45:28;100630;;;14;59
78843;BME280;70542;53.774;-0.352;2023-07-24T07:51:07;100630;;;14;61
78843;BME280;70542;53.774;-0.352;2023-07-24T07:56:46;100630;;;14;59
78843;BME280;70542;53.774;-0.352;2023-07-24T08:02:24;100630;;;15;57
78843;BME280;70542;53.774;-0.352;2023-07-24T08:08:04;100630;;;15;55
78843;BME280;70542;53.774;-0.352;2023-07-24T08:13:42;100640;;;16;53
78843;BME280;70542;53.774;-0.352;2023-07-24T08:19:21;100640;;;16;53
78843;BME280;70542;53.774;-0.352;2023-07-24T08:25:00;100640;;;17;47
78843;BME280;70542;53.774;-0.352;2023-07-24T08:30:38;100650;;;16;52
78843;BME280;70542;53.774;-0.352;2023-07-24T08:36:17;100640;;;17;50
78843;BME280;70542;53.774;-0.352;2023-07-24T08:41:56;100660;;;17;50
78843;BME280;70542;53.774;-0.352;2023-07-24T08:47:35;100660;;;15;52
78843;BME280;70542;53.774;-0.352;2023-07-24T08:53:14;100660;;;16;47
78843;BME280;70542;53.774;-0.352;2023-07-24T08:58:53;100660;;;17;49
78843;BME280;70542;53.774;-0.352;2023-07-24T09:04:31;100660;;;17;46
78843;BME280;70542;53.774;-0.352;2023-07-24T09:10:10;100660;;;16;48
78843;BME280;70542;53.774;-0.352;2023-07-24T09:15:49;100670;;;17;46
78843;BME280;70542;53.774;-0.352;2023-07-24T09:21:28;100670;;;18;46
78843;BME280;70542;53.774;-0.352;2023-07-24T09:27:07;100670;;;17;48
78843;BME280;70542;53.774;-0.352;2023-07-24T09:32:51;100680;;;17;46
78843;BME280;70542;53.774;-0.352;2023-07-24T09:38:30;100680;;;15;48
78843;BME280;70542;53.774;-0.352;2023-07-24T09:44:11;100690;;;15;48
78843;BME280;70542;53.774;-0.352;2023-07-24T09:49:50;100690;;;17;50
78843;BME280;70542;53.774;-0.352;2023-07-24T09:55:34;100690;;;16;47
78843;BME280;70542;53.774;-0.352;2023-07-24T10:01:13;100690;;;15;48
78843;BME280;70542;53.774;-0.352;2023-07-24T10:06:53;100690;;;16;48
78843;BME280;70542;53.774;-0.352;2023-07-24T10:12:32;100690;;;18;46
78843;BME280;70542;53.774;-0.352;2023-07-24T10:18:10;100690;;;18;41
78843;BME280;70542;53.774;-0.352;2023-07-24T10:23:49;100700;;;17;46
78843;BME280;70542;53.774;-0.352;2023-07-24T10:29:27;100700;;;15;53
78843;BME280;70542;53.774;-0.352;2023-07-24T10:35:07;100720;;;16;50
78843;BME280;70542;53.774;-0.352;2023-07-24T10:40:47;100720;;;16;52
78843;BME280;70542;53.774;-0.352;2023-07-24T10:46:36;100720;;;16;50
78843;BME280;70542;53.774;-0.352;2023-07-24T10:52:15;100720;;;15;51
78843;BME280;70542;53.774;-0.352;2023-07-24T10:57:54;100720;;;16;50
78843;BME280;70542;53.774;-0.352;2023-07-24T11:03:34;100720;;;15;53
78843;BME280;70542;53.774;-0.352;2023-07-24T11:09:13;100730;;;17;49
78843;BME280;70542;53.774;-0.352;2023-07-24T11:14:53;100730;;;18;48
78843;BME280;70542;53.774;-0.352;2023-07-24T11:20:31;100750;;;16;48
78843;BME280;70542;53.774;-0.352;2023-07-24T11:26:10;100750;;;16;47
78843;BME280;70542;53.774;-0.352;2023-07-24T11:31:53;100750;;;16;49
78843;BME280;70542;53.774;-0.352;2023-07-24T11:37:33;100750;;;17;45
78843;BME280;70542;53.774;-0.352;2023-07-24T11:43:16;100750;;;18;43
78843;BME280;70542;53.774;-0.352;2023-07-24T11:48:55;100760;;;16;47
78843;BME280;70542;53.774;-0.352;2023-07-24T11:54:34;100760;;;16;50
78843;BME280;70542;53.774;-0.352;2023-07-24T12:00:20;100760;;;17;46
78843;BME280;70542;53.774;-0.352;2023-07-24T12:05:58;100770;;;19;44
78843;BME280;70542;53.774;-0.352;2023-07-24T12:11:41;100770;;;17;43
78843;BME280;70542;53.774;-0.352;2023-07-24T12:17:21;100770;;;18;43
78843;BME280;70542;53.774;-0.352;2023-07-24T12:22:59;100780;;;17;44
78843;BME280;70542;53.774;-0.352;2023-07-24T12:28:39;100800;;;15;50
78843;BME280;70542;53.774;-0.352;2023-07-24T12:34:17;100790;;;15;49
78843;BME280;70542;53.774;-0.352;2023-07-24T12:39:56;100790;;;16;47
78843;BME280;70542;53.774;-0.352;2023-07-24T12:45:35;100800;;;17;43
78843;BME280;70542;53.774;-0.352;2023-07-24T12:51:13;100790;;;17;43
78843;BME280;70542;53.774;-0.352;2023-07-24T12:56:52;100800;;;16;44
78843;BME280;70542;53.774;-0.352;2023-07-24T13:02:30;100810;;;15;49
78843;BME280;70542;53.774;-0.352;2023-07-24T13:08:09;100810;;;16;48
78843;BME280;70542;53.774;-0.352;2023-07-24T13:13:47;100810;;;16;47
78843;BME280;70542;53.774;-0.352;2023-07-24T13:19:26;100820;;;15;48
78843;BME280;70542;53.774;-0.352;2023-07-24T13:25:05;100820;;;15;48
78843;BME280;70542;53.774;-0.352;2023-07-24T13:30:44;100830;;;15;50
78843;BME280;70542;53.774;-0.352;2023-07-24T13:36:22;100830;;;16;46
78843;BME280;70542;53.774;-0.352;2023-07-24T13:42:01;100820;;;18;45
78843;BME280;70542;53.774;-0.352;2023-07-24T13:47:39;100810;;;18;42
78843;BME280;70542;53.774;-0.352;2023-07-24T13:53:18;100820;;;18;42
78843;BME280;70542;53.774;-0.352;2023-07-24T13:58:57;100820;;;18;41
78843;BME280;70542;53.774;-0.352;2023-07-24T14:04:35;100820;;;19;41
78843;BME280;70542;53.774;-0.352;2023-07-24T14:10:14;100820;;;19;39
78843;BME280;70542;53.774;-0.352;2023-07-24T14:15:53;100820;;;18;41
78843;BME280;70542;53.774;-0.352;2023-07-24T14:21:32;100820;;;17;42
78843;BME280;70542;53.774;-0.352;2023-07-24T14:27:10;100820;;;18;41
78843;BME280;70542;53.774;-0.352;2023-07-24T14:32:50;100820;;;19;41
78843;BME280;70542;53.774;-0.352;2023-07-24T14:38:29;100820;;;19;37
78843;BME280;70542;53.774;-0.352;2023-07-24T14:44:07;100820;;;19;36
78843;BME280;70542;53.774;-0.352;2023-07-24T14:49:46;100820;;;19;39
78843;BME280;70542;53.774;-0.352;2023-07-24T14:55:24;100820;;;20;36
78843;BME280;70542;53.774;-0.352;2023-07-24T15:01:06;100820;;;20;34
78843;BME280;70542;53.774;-0.352;2023-07-24T15:06:44;100820;;;20;35
78843;BME280;70542;53.774;-0.352;2023-07-24T15:12:23;100820;;;20;34
78843;BME280;70542;53.774;-0.352;2023-07-24T15:18:06;100830;;;20;35
78843;BME280;70542;53.774;-0.352;2023-07-24T15:23:45;100820;;;20;34
78843;BME280;70542;53.774;-0.352;2023-07-24T15:29:23;100820;;;20;35
78843;BME280;70542;53.774;-0.352;2023-07-24T15:35:03;100820;;;20;34
78843;BME280;70542;53.774;-0.352;2023-07-24T15:40:42;100820;;;20;35
78843;BME280;70542;53.774;-0.352;2023-07-24T15:46:21;100820;;;20;34
78843;BME280;70542;53.774;-0.352;2023-07-24T15:52:07;100820;;;20;33
78843;BME280;70542;53.774;-0.352;2023-07-24T15:57:46;100820;;;19;35
78843;BME280;70542;53.774;-0.352;2023-07-24T16:03:25;100830;;;19;37
78843;BME280;70542;53.774;-0.352;2023-07-24T16:09:06;100830;;;20;34
78843;BME280;70542;53.774;-0.352;2023-07-24T16:14:45;100840;;;20;32
78843;BME280;70542;53.774;-0.352;2023-07-24T16:20:24;100840;;;20;33
78843;BME280;70542;53.774;-0.352;2023-07-24T16:26:02;100840;;;20;33
78843;BME280;70542;53.774;-0.352;2023-07-24T16:31:46;100840;;;20;31
78843;BME280;70542;53.774;-0.352;2023-07-24T16:37:34;100840;;;20;30
78843;BME280;70542;53.774;-0.352;2023-07-24T16:43:13;100850;;;21;30
78843;BME280;70542;53.774;-0.352;2023-07-24T16:48:53;100850;;;20;31
78843;BME280;70542;53.774;-0.352;2023-07-24T16:54:31;100860;;;20;33
78843;BME280;70542;53.774;-0.352;2023-07-24T17:00:11;100850;;;20;32
78843;BME280;70542;53.774;-0.352;2023-07-24T17:05:54;100850;;;20;32
78843;BME280;70542;53.774;-0.352;2023-07-24T17:11:33;100860;;;20;31
78843;BME280;70542;53.774;-0.352;2023-07-24T17:17:11;100860;;;20;33
78843;BME280;70542;53.774;-0.352;2023-07-24T17:22:50;100860;;;20;31
78843;BME280;70542;53.774;-0.352;2023-07-24T17:28:29;100860;;;21;31
78843;BME280;70542;53.774;-0.352;2023-07-24T17:34:07;100870;;;22;29
78843;BME280;70542;53.774;-0.352;2023-07-24T17:39:49;100870;;;21;29
78843;BME280;70542;53.774;-0.352;2023-07-24T17:45:28;100870;;;21;29
78843;BME280;70542;53.774;-0.352;2023-07-24T17:51:06;100870;;;21;29
78843;BME280;70542;53.774;-0.352;2023-07-24T17:56:50;100880;;;21;28
78843;BME280;70542;53.774;-0.352;2023-07-24T18:02:28;100880;;;20;30
78843;BME280;70542;53.774;-0.352;2023-07-24T18:08:07;100870;;;21;29
78843;BME280;70542;53.774;-0.352;2023-07-24T18:13:45;100870;;;21;30
78843;BME280;70542;53.774;-0.352;2023-07-24T18:19:24;100880;;;20;31
78843;BME280;70542;53.774;-0.352;2023-07-24T18:25:03;100870;;;20;30
78843;BME280;70542;53.774;-0.352;2023-07-24T18:30:42;100880;;;20;31
78843;BME280;70542;53.774;-0.352;2023-07-24T18:36:21;100880;;;19;32
78843;BME280;70542;53.774;-0.352;2023-07-24T18:41:59;100880;;;20;30
78843;BME280;70542;53.774;-0.352;2023-07-24T18:47:43;100880;;;19;29
78843;BME280;70542;53.774;-0.352;2023-07-24T18:53:22;100890;;;19;30
78843;BME280;70542;53.774;-0.352;2023-07-24T18:59:00;100890;;;18;32
78843;BME280;70542;53.774;-0.352;2023-07-24T19:04:44;100890;;;19;31
78843;BME280;70542;53.774;-0.352;2023-07-24T19:10:23;100900;;;19;34
78843;BME280;70542;53.774;-0.352;2023-07-24T19:16:01;100900;;;19;32
78843;BME280;70542;53.774;-0.352;2023-07-24T19:21:40;100910;;;18;33
78843;BME280;70542;53.774;-0.352;2023-07-24T19:27:19;100910;;;19;32
78843;BME280;70542;53.774;-0.352;2023-07-24T19:33:02;100920;;;18;32
78843;BME280;70542;53.774;-0.352;2023-07-24T19:39:01;100930;;;18;32
78843;BME280;70542;53.774;-0.352;2023-07-24T19:44:39;100930;;;19;33
78843;BME280;70542;53.774;-0.352;2023-07-24T19:50:19;100940;;;19;33
78843;BME280;70542;53.774;-0.352;2023-07-24T19:55:58;100940;;;19;34
78843;BME280;70542;53.774;-0.352;2023-07-24T20:01:36;100940;;;19;34
78843;BME280;70542;53.774;-0.352;2023-07-24T20:07:15;100950;;;19;36
78843;BME280;70542;53.774;-0.352;2023-07-24T20:12:55;100940;;;18;36
78843;BME280;70542;53.774;-0.352;2023-07-24T20:18:34;100940;;;18;37
78843;BME280;70542;53.774;-0.352;2023-07-24T20:24:23;100940;;;19;38
78843;BME280;70542;53.774;-0.352;2023-07-24T20:30:01;100940;;;19;35
78843;BME280;70542;53.774;-0.352;2023-07-24T20:35:41;100940;;;19;36
78843;BME280;70542;53.774;-0.352;2023-07-24T20:41:20;100950;;;19;37
78843;BME280;70542;53.774;-0.352;2023-07-24T20:46:58;100950;;;19;37
78843;BME280;70542;53.774;-0.352;2023-07-24T20:52:37;100960;;;18;37
78843;BME280;70542;53.774;-0.352;2023-07-24T20:58:16;100960;;;19;37
78843;BME280;70542;53.774;-0.352;2023-07-24T21:03:54;100950;;;19;37
78843;BME280;70542;53.774;-0.352;2023-07-24T21:09:33;100960;;;19;37
78843;BME280;70542;53.774;-0.352;2023-07-24T21:15:11;100960;;;19;37
78843;BME280;70542;53.774;-0.352;2023-07-24T21:20:50;100960;;;18;36
78843;BME280;70542;53.774;-0.352;2023-07-24T21:26:28;100960;;;19;37
78843;BME280;70542;53.774;-0.352;2023-07-24T21:32:07;100960;;;18;37
78843;BME280;70542;53.774;-0.352;2023-07-24T21:37:46;100960;;;18;37
78843;BME280;70542;53.774;-0.352;2023-07-24T21:43:25;100970;;;18;37
78843;BME280;70542;53.774;-0.352;2023-07-24T21:49:03;100970;;;18;37
78843;BME280;70542;53.774;-0.352;2023-07-24T21:54:42;100970;;;19;37
78843;BME280;70542;53.774;-0.352;2023-07-24T22:00:20;100970;;;19;37
78843;BME280;70542;53.774;-0.352;2023-07-24T22:05:59;100980;;;18;37
78843;BME280;70542;53.774;-0.352;2023-07-24T22:11:38;100980;;;18;37
78843;BME280;70542;53.774;-0.352;2023-07-24T22:17:16;100970;;;18;38
78843;BME280;70542;53.774;-0.352;2023-07-24T22:22:55;100970;;;18;38
78843;BME280;70542;53.774;-0.352;2023-07-24T22:28:34;100970;;;18;38
78843;BME280;70542;53.774;-0.352;2023-07-24T22:34:12;100970;;;18;38
78843;BME280;70542;53.774;-0.352;2023-07-24T22:39:52;100970;;;18;37
78843;BME280;70542;53.774;-0.352;2023-07-24T22:45:30;100970;;;19;38
78843;BME280;70542;53.774;-0.352;2023-07-24T22:51:09;100970;;;18;37
78843;BME280;70542;53.774;-0.352;2023-07-24T22:56:53;100970;;;19;36
78843;BME280;70542;53.774;-0.352;2023-07-24T23:02:31;100970;;;19;37
78843;BME280;70542;53.774;-0.352;2023-07-24T23:08:10;100970;;;19;37
78843;BME280;70542;53.774;-0.352;2023-07-24T23:13:58;100960;;;19;37
78843;BME280;70542;53.774;-0.352;2023-07-24T23:19:37;100960;;;19;36
78843;BME280;70542;53.774;-0.352;2023-07-24T23:25:16;100960;;;19;36
78843;BME280;70542;53.774;-0.352;2023-07-24T23:30:54;100960;;;19;36
78843;BME280;70542;53.774;-0.352;2023-07-24T23:36:34;100950;;;19;36
78843;BME280;70542;53.774;-0.352;2023-07-24T23:42:17;100950;;;19;36
78843;BME280;70542;53.774;-0.352;2023-07-24T23:47:56;100950;;;19;36
78843;BME280;70542;53.774;-0.352;2023-07-24T23:53:35;100940;;;19;37
78843;BME280;70542;53.774;-0.352;2023-07-24T23:59:13;100940;;;18;36
